createdAt,value
2022-08-19T00:01:55.752Z,27.87
2022-08-19T00:04:29.438Z,25.70
2022-08-19T00:06:57.800Z,26.63
2022-08-19T00:09:26.857Z,28.70
2022-08-19T00:11:56.647Z,26.97
2022-08-19T00:14:26.257Z,27.27
2022-08-19T00:16:55.731Z,28.23
2022-08-19T00:19:26.518Z,28.47
2022-08-19T00:21:55.567Z,26.50
2022-08-19T00:24:23.847Z,27.30
2022-08-19T00:26:52.590Z,27.83
2022-08-19T00:29:22.598Z,28.17
2022-08-19T00:31:54.408Z,28.50
2022-08-19T00:34:23.398Z,27.70
2022-08-19T00:36:53.018Z,28.00
2022-08-19T00:39:21.308Z,28.50
2022-08-19T00:41:50.819Z,26.80
2022-08-19T00:44:22.690Z,26.43
2022-08-19T00:47:01.607Z,26.90
2022-08-19T00:49:32.427Z,27.17
2022-08-19T00:52:05.438Z,26.50
2022-08-19T00:54:34.219Z,27.43
2022-08-19T00:57:04.100Z,25.77
2022-08-19T00:59:56.433Z,25.67
2022-08-19T01:02:20.698Z,24.80
2022-08-19T01:04:49.279Z,24.13
2022-08-19T01:07:19.601Z,25.53
2022-08-19T01:09:48.511Z,25.43
2022-08-19T01:12:17.260Z,24.33
2022-08-19T01:14:45.513Z,24.93
2022-08-19T01:17:13.908Z,23.53
2022-08-19T01:19:44.652Z,25.20
2022-08-19T01:22:16.687Z,24.57
2022-08-19T01:24:49.698Z,24.27
2022-08-19T01:27:19.006Z,23.67
2022-08-19T01:29:49.105Z,23.90
2022-08-19T01:32:32.038Z,25.93
2022-08-19T01:35:03.938Z,24.63
2022-08-19T01:37:32.529Z,23.10
2022-08-19T01:40:05.273Z,23.90
2022-08-19T01:42:36.310Z,25.37
2022-08-19T01:45:05.478Z,24.73
2022-08-19T01:47:33.619Z,25.37
2022-08-19T01:50:07.199Z,23.87
2022-08-19T01:52:37.399Z,23.03
2022-08-19T01:55:10.628Z,23.37
2022-08-19T01:57:39.186Z,22.97
2022-08-19T02:00:11.220Z,23.53
2022-08-19T02:02:39.345Z,23.80
2022-08-19T02:05:10.633Z,22.60
2022-08-19T02:07:41.296Z,22.03
2022-08-19T02:10:16.734Z,24.07
2022-08-19T02:12:44.960Z,22.63
2022-08-19T02:15:13.477Z,22.23
2022-08-19T02:17:42.388Z,22.50
2022-08-19T02:20:11.998Z,24.23
2022-08-19T02:22:42.638Z,21.57
2022-08-19T02:25:13.407Z,22.47
2022-08-19T02:27:42.230Z,21.40
2022-08-19T02:30:14.058Z,21.53
2022-08-19T02:32:54.529Z,20.83
2022-08-19T02:35:23.190Z,19.40
2022-08-19T02:38:09.099Z,19.80
2022-08-19T02:40:38.768Z,21.57
2022-08-19T02:43:08.558Z,19.47
2022-08-19T02:45:36.995Z,20.70
2022-08-19T02:48:21.742Z,19.97
2022-08-19T02:50:54.021Z,21.33
2022-08-19T02:53:23.269Z,19.67
2022-08-19T02:55:53.796Z,20.60
2022-08-19T02:58:25.114Z,20.90
2022-08-19T03:00:55.723Z,20.33
2022-08-19T03:03:24.601Z,20.67
2022-08-19T03:05:56.577Z,20.67
2022-08-19T03:08:26.662Z,21.03
2022-08-19T03:10:56.390Z,20.03
2022-08-19T03:13:25.550Z,18.93
2022-08-19T03:15:53.856Z,20.47
2022-08-19T03:18:23.301Z,19.60
2022-08-19T03:20:54.087Z,19.47
2022-08-19T03:23:22.478Z,18.70
2022-08-19T03:25:58.376Z,20.23
2022-08-19T03:28:42.723Z,19.30
2022-08-19T03:31:41.858Z,19.10
2022-08-19T03:34:08.188Z,19.53
2022-08-19T03:36:36.609Z,19.67
2022-08-19T03:39:05.167Z,19.10
2022-08-19T03:41:45.179Z,19.53
2022-08-19T03:44:17.835Z,19.83
2022-08-19T03:46:48.445Z,18.77
2022-08-19T03:49:18.367Z,19.63
2022-08-19T03:51:47.865Z,19.30
2022-08-19T03:54:17.587Z,19.70
2022-08-19T03:56:46.819Z,19.03
2022-08-19T03:59:19.108Z,19.30
2022-08-19T04:01:47.355Z,18.73
2022-08-19T04:04:15.597Z,21.07
2022-08-19T04:06:43.927Z,18.60
2022-08-19T04:09:13.536Z,18.87
2022-08-19T04:11:45.004Z,19.63
2022-08-19T04:14:16.776Z,19.70
2022-08-19T04:16:46.078Z,17.83
2022-08-19T04:19:15.016Z,17.97
2022-08-19T04:21:46.245Z,18.17
2022-08-19T04:24:15.155Z,17.57
2022-08-19T04:26:43.637Z,18.97
2022-08-19T04:29:13.507Z,17.30
2022-08-19T04:31:46.273Z,17.43
2022-08-19T04:34:16.279Z,18.83
2022-08-19T04:36:46.419Z,18.67
2022-08-19T04:39:17.076Z,19.23
2022-08-19T04:42:02.936Z,18.23
2022-08-19T04:44:33.246Z,19.17
2022-08-19T04:47:11.247Z,17.90
2022-08-19T04:49:39.815Z,18.30
2022-08-19T04:52:09.605Z,18.30
2022-08-19T04:54:39.370Z,18.47
2022-08-19T04:57:09.774Z,16.90
2022-08-19T04:59:38.585Z,18.37
2022-08-19T05:02:09.775Z,17.93
2022-08-19T05:04:40.322Z,18.33
2022-08-19T05:07:09.016Z,16.80
2022-08-19T05:09:56.567Z,17.20
2022-08-19T05:12:28.947Z,19.57
2022-08-19T05:14:58.897Z,20.20
2022-08-19T05:17:33.330Z,19.13
2022-08-19T05:20:23.206Z,18.40
2022-08-19T05:22:51.626Z,17.80
2022-08-19T05:25:22.307Z,18.17
2022-08-19T05:27:50.565Z,18.83
2022-08-19T05:30:24.382Z,19.70
2022-08-19T05:33:10.565Z,19.17
2022-08-19T05:35:39.055Z,18.63
2022-08-19T05:38:08.406Z,20.00
2022-08-19T05:40:37.145Z,20.30
2022-08-19T05:43:06.495Z,18.97
2022-08-19T05:45:34.755Z,19.30
2022-08-19T05:48:02.978Z,19.07
2022-08-19T05:50:32.558Z,19.37
2022-08-19T05:53:02.398Z,19.47
2022-08-19T05:55:30.590Z,22.03
2022-08-19T05:57:58.909Z,19.87
2022-08-19T06:00:27.079Z,20.40
2022-08-19T06:02:59.335Z,21.20
2022-08-19T06:05:27.639Z,21.40
2022-08-19T06:07:57.341Z,20.93
2022-08-19T06:10:25.590Z,20.80
2022-08-19T06:12:53.830Z,20.40
2022-08-19T06:15:27.509Z,21.80
2022-08-19T06:17:55.891Z,20.53
2022-08-19T06:20:45.898Z,21.57
2022-08-19T06:23:16.209Z,20.30
2022-08-19T06:25:45.419Z,21.23
2022-08-19T06:28:15.577Z,21.23
2022-08-19T06:30:44.000Z,22.10
2022-08-19T06:33:12.258Z,20.73
2022-08-19T06:35:41.496Z,20.73
2022-08-19T06:38:10.561Z,20.47
2022-08-19T06:40:40.251Z,18.67
2022-08-19T06:43:09.436Z,18.40
2022-08-19T06:45:39.810Z,19.47
2022-08-19T06:48:08.545Z,18.33
2022-08-19T06:50:39.620Z,18.93
2022-08-19T06:53:09.881Z,18.23
2022-08-19T06:55:40.467Z,17.60
2022-08-19T06:58:09.018Z,18.47
2022-08-19T07:00:37.709Z,17.60
2022-08-19T07:03:08.757Z,17.23
2022-08-19T07:05:45.275Z,17.10
2022-08-19T07:08:14.204Z,16.53
2022-08-19T07:10:47.009Z,18.33
2022-08-19T07:13:15.337Z,16.80
2022-08-19T07:15:43.609Z,16.63
2022-08-19T07:18:12.150Z,16.13
2022-08-19T07:20:42.167Z,16.20
2022-08-19T07:23:11.212Z,16.43
2022-08-19T07:25:51.458Z,15.77
2022-08-19T07:28:24.311Z,16.67
2022-08-19T07:30:53.829Z,16.20
2022-08-19T07:33:22.281Z,16.53
2022-08-19T07:35:51.277Z,18.13
2022-08-19T07:38:19.610Z,17.90
2022-08-19T07:40:49.179Z,18.10
2022-08-19T07:43:18.292Z,18.43
2022-08-19T07:45:48.122Z,16.07
2022-08-19T07:48:16.729Z,16.90
2022-08-19T07:50:45.489Z,17.47
2022-08-19T07:53:14.319Z,18.20
2022-08-19T07:55:44.066Z,17.40
2022-08-19T07:58:15.540Z,17.67
2022-08-19T08:00:44.063Z,16.67
2022-08-19T08:03:12.669Z,17.30
2022-08-19T08:05:58.169Z,17.53
2022-08-19T08:08:47.914Z,18.23
2022-08-19T08:11:20.028Z,16.87
2022-08-19T08:14:00.921Z,17.93
2022-08-19T08:16:35.629Z,17.53
2022-08-19T08:19:20.392Z,17.93
2022-08-19T08:21:55.059Z,16.87
2022-08-19T08:24:23.298Z,17.20
2022-08-19T08:26:57.487Z,17.03
2022-08-19T08:29:34.569Z,16.50
2022-08-19T08:32:03.392Z,16.70
2022-08-19T08:34:31.569Z,17.80
2022-08-19T08:36:59.837Z,16.77
2022-08-19T08:39:27.989Z,17.20
2022-08-19T08:42:00.901Z,17.93
2022-08-19T08:47:21.729Z,16.10
2022-08-19T08:49:54.251Z,14.93
2022-08-19T08:52:25.879Z,16.07
2022-08-19T08:55:03.372Z,14.80
2022-08-19T08:57:42.591Z,15.00
2022-08-19T09:00:17.372Z,13.37
2022-08-19T09:02:50.564Z,13.80
2022-08-19T09:05:22.739Z,14.73
2022-08-19T09:08:00.918Z,12.20
2022-08-19T09:10:32.368Z,11.67
2022-08-19T09:13:09.705Z,11.67
2022-08-19T09:15:45.540Z,10.93
2022-08-19T09:18:19.454Z,11.03
2022-08-19T09:20:49.186Z,11.13
2022-08-19T09:23:18.558Z,10.20
2022-08-19T09:25:55.148Z,9.37
2022-08-19T09:28:27.027Z,10.00
2022-08-19T09:30:57.078Z,10.30
2022-08-19T09:33:25.318Z,10.67
2022-08-19T09:36:08.585Z,11.33
2022-08-19T09:38:37.278Z,11.67
2022-08-19T09:41:14.838Z,11.57
2022-08-19T09:43:47.949Z,12.30
2022-08-19T09:46:19.367Z,12.20
2022-08-19T09:48:53.288Z,12.80
2022-08-19T09:51:23.999Z,11.67
2022-08-19T09:53:54.758Z,13.33
2022-08-19T09:56:24.550Z,12.30
2022-08-19T09:58:52.831Z,12.23
2022-08-19T10:01:24.385Z,11.60
2022-08-19T10:03:54.708Z,13.83
2022-08-19T10:06:45.191Z,12.83
2022-08-19T10:09:13.079Z,12.00
2022-08-19T10:11:51.046Z,11.97
2022-08-19T10:14:23.651Z,12.23
2022-08-19T10:16:53.451Z,11.17
2022-08-19T10:19:25.685Z,11.67
2022-08-19T10:21:55.633Z,12.30
2022-08-19T10:24:29.035Z,11.53
2022-08-19T10:26:59.022Z,10.73
2022-08-19T10:29:31.803Z,10.23
2022-08-19T10:32:03.517Z,10.97
2022-08-19T10:34:32.318Z,10.87
2022-08-19T10:37:04.331Z,10.87
2022-08-19T10:39:43.114Z,10.37
2022-08-19T10:42:14.314Z,10.90
2022-08-19T10:44:42.800Z,10.53
2022-08-19T10:47:17.275Z,9.90
2022-08-19T10:50:12.024Z,10.23
2022-08-19T10:52:50.180Z,9.37
2022-08-19T10:55:37.698Z,10.57
2022-08-19T10:58:06.223Z,8.90
2022-08-19T11:00:34.863Z,10.23
2022-08-19T11:03:04.558Z,8.80
2022-08-19T11:05:39.796Z,9.43
2022-08-19T11:08:23.283Z,9.43
2022-08-19T11:10:54.766Z,10.90
2022-08-19T11:13:23.307Z,9.70
2022-08-19T11:16:01.704Z,9.53
2022-08-19T11:18:33.548Z,9.67
2022-08-19T11:21:08.559Z,10.07
2022-08-19T11:23:36.778Z,10.80
2022-08-19T11:26:05.187Z,10.00
2022-08-19T11:28:33.356Z,10.90
2022-08-19T11:31:01.548Z,9.50
2022-08-19T11:33:29.738Z,10.07
2022-08-19T11:36:01.148Z,10.63
2022-08-19T11:38:29.668Z,11.40
2022-08-19T11:40:59.087Z,10.60
2022-08-19T11:43:28.038Z,10.23
2022-08-19T11:45:56.388Z,9.40
2022-08-19T11:48:25.647Z,9.70
2022-08-19T11:50:56.528Z,10.83
2022-08-19T11:53:26.167Z,10.63
2022-08-19T11:55:57.067Z,9.77
2022-08-19T11:58:26.027Z,9.73
2022-08-19T12:00:54.287Z,10.20
2022-08-19T12:03:22.468Z,10.13
2022-08-19T12:05:50.978Z,9.63
2022-08-19T12:08:19.977Z,9.30
2022-08-19T12:10:49.528Z,10.07
2022-08-19T12:13:19.764Z,10.17
2022-08-19T12:15:56.129Z,10.23
2022-08-19T12:18:25.827Z,10.53
2022-08-19T12:20:55.699Z,9.23
2022-08-19T12:23:24.218Z,10.53
2022-08-19T12:25:52.923Z,10.33
2022-08-19T12:28:22.196Z,11.13
2022-08-19T12:30:51.228Z,10.70
2022-08-19T12:33:25.114Z,10.03
2022-08-19T12:35:53.478Z,10.43
2022-08-19T12:38:24.148Z,10.63
2022-08-19T12:40:55.102Z,10.70
2022-08-19T12:43:25.347Z,11.07
2022-08-19T12:45:53.449Z,10.53
2022-08-19T12:48:32.856Z,10.83
2022-08-19T12:51:02.630Z,11.33
2022-08-19T12:53:31.287Z,11.40
2022-08-19T12:56:01.111Z,12.13
2022-08-19T12:58:30.088Z,11.60
2022-08-19T13:00:58.448Z,11.57
2022-08-19T13:03:30.448Z,11.13
2022-08-19T13:05:58.978Z,10.83
2022-08-19T13:08:27.396Z,10.97
2022-08-19T13:10:56.748Z,10.73
2022-08-19T13:13:27.099Z,11.83
2022-08-19T13:15:55.298Z,10.80
2022-08-19T13:18:23.608Z,10.60
2022-08-19T13:20:54.250Z,10.17
2022-08-19T13:23:22.498Z,11.37
2022-08-19T13:25:58.699Z,13.80
2022-08-19T13:28:29.267Z,16.03
2022-08-19T13:31:15.098Z,14.97
2022-08-19T13:33:43.248Z,13.33
2022-08-19T13:36:12.838Z,13.70
2022-08-19T13:38:41.168Z,14.20
2022-08-19T13:41:13.247Z,12.27
2022-08-19T13:43:42.969Z,12.93
2022-08-19T13:46:15.188Z,13.60
2022-08-19T13:48:43.850Z,12.17
2022-08-19T13:51:13.421Z,11.57
2022-08-19T13:53:47.424Z,12.97
2022-08-19T13:56:17.485Z,12.93
2022-08-19T13:58:45.811Z,12.87
2022-08-19T14:01:14.143Z,12.90
2022-08-19T14:03:42.326Z,12.73
2022-08-19T14:06:10.558Z,13.10
2022-08-19T14:08:46.044Z,12.97
2022-08-19T14:11:14.669Z,12.33
2022-08-19T14:13:43.123Z,11.87
2022-08-19T14:16:12.079Z,12.63
2022-08-19T14:18:40.827Z,13.90
2022-08-19T14:21:09.508Z,12.40
2022-08-19T14:23:38.339Z,12.63
2022-08-19T14:26:12.749Z,12.33
2022-08-19T14:28:42.892Z,12.97
2022-08-19T14:31:11.339Z,13.93
2022-08-19T14:33:39.548Z,13.50
2022-08-19T14:36:08.308Z,13.33
2022-08-19T14:38:37.678Z,13.00
2022-08-19T14:41:13.050Z,13.43
2022-08-19T14:43:41.741Z,13.67
2022-08-19T14:46:11.656Z,14.20
2022-08-19T14:48:41.506Z,12.87
2022-08-19T14:51:10.339Z,14.20
2022-08-19T14:53:38.766Z,13.87
2022-08-19T14:56:12.158Z,13.87
2022-08-19T14:58:41.998Z,13.70
2022-08-19T15:01:11.517Z,14.13
2022-08-19T15:03:42.251Z,14.50
2022-08-19T15:06:12.692Z,14.20
2022-08-19T15:08:44.168Z,13.97
2022-08-19T15:11:16.998Z,14.53
2022-08-19T15:13:47.635Z,14.53
2022-08-19T15:16:18.101Z,14.27
2022-08-19T15:18:47.665Z,15.07
2022-08-19T15:21:26.510Z,14.87
2022-08-19T15:23:56.516Z,13.87
2022-08-19T15:26:27.519Z,14.40
2022-08-19T15:28:55.918Z,15.60
2022-08-19T15:31:28.135Z,14.43
2022-08-19T15:33:59.174Z,14.67
2022-08-19T15:36:28.403Z,13.80
2022-08-19T15:38:57.157Z,14.13
2022-08-19T15:41:29.239Z,13.10
2022-08-19T15:43:59.905Z,14.40
2022-08-19T15:46:30.150Z,13.83
2022-08-19T15:48:59.909Z,13.67
2022-08-19T15:51:30.572Z,13.23
2022-08-19T15:53:59.042Z,13.07
2022-08-19T15:56:57.509Z,13.00
2022-08-19T15:59:46.719Z,13.23
2022-08-19T16:02:32.847Z,12.83
2022-08-19T16:05:19.824Z,12.00
2022-08-19T16:07:48.237Z,12.50
2022-08-19T16:10:26.565Z,10.73
2022-08-19T16:12:58.048Z,10.30
2022-08-19T16:15:28.019Z,11.23
2022-08-19T16:17:57.842Z,11.13
2022-08-19T16:20:28.099Z,9.90
2022-08-19T16:22:58.480Z,10.97
2022-08-19T16:25:29.220Z,11.17
2022-08-19T16:28:07.439Z,11.77
2022-08-19T16:30:38.031Z,12.23
2022-08-19T16:33:06.500Z,10.90
2022-08-19T16:35:34.897Z,11.27
2022-08-19T16:38:03.218Z,12.37
2022-08-19T16:40:31.558Z,13.00
2022-08-19T16:43:03.129Z,11.73
2022-08-19T16:45:31.742Z,12.23
2022-08-19T16:48:00.040Z,13.47
2022-08-19T16:50:47.754Z,12.77
2022-08-19T16:53:16.961Z,12.17
2022-08-19T16:55:45.240Z,12.60
2022-08-19T16:58:15.348Z,12.33
2022-08-19T17:00:43.558Z,12.67
2022-08-19T17:03:15.071Z,13.40
2022-08-19T17:05:44.548Z,13.03
2022-08-19T17:08:13.139Z,12.17
2022-08-19T17:10:45.702Z,12.27
2022-08-19T17:13:28.071Z,11.17
2022-08-19T17:15:56.448Z,11.70
2022-08-19T17:18:25.659Z,11.13
2022-08-19T17:21:01.123Z,10.50
2022-08-19T17:23:42.094Z,10.87
2022-08-19T17:26:16.996Z,11.67
2022-08-19T17:28:49.973Z,10.33
2022-08-19T17:31:19.758Z,10.27
2022-08-19T17:33:48.639Z,10.33
2022-08-19T17:36:17.954Z,10.80
2022-08-19T17:38:46.285Z,10.33
2022-08-19T17:41:14.518Z,9.00
2022-08-19T17:43:43.810Z,8.97
2022-08-19T17:46:18.197Z,9.17
2022-08-19T17:48:52.045Z,10.13
2022-08-19T17:51:22.920Z,9.40
2022-08-19T17:53:51.926Z,9.23
2022-08-19T17:56:22.371Z,9.10
2022-08-19T17:58:57.680Z,8.43
2022-08-19T18:01:52.411Z,9.27
2022-08-19T18:04:20.013Z,9.13
2022-08-19T18:06:53.761Z,9.27
2022-08-19T18:09:24.431Z,9.57
2022-08-19T18:11:54.707Z,9.97
2022-08-19T18:14:33.307Z,9.10
2022-08-19T18:17:09.550Z,9.07
2022-08-19T18:19:41.846Z,9.60
2022-08-19T18:22:12.358Z,9.50
2022-08-19T18:24:41.218Z,9.47
2022-08-19T18:27:10.173Z,9.47
2022-08-19T18:29:40.290Z,9.27
2022-08-19T18:32:13.517Z,9.53
2022-08-19T18:34:42.555Z,9.03
2022-08-19T18:37:10.789Z,9.63
2022-08-19T18:39:56.467Z,9.23
2022-08-19T18:42:42.218Z,9.30
2022-08-19T18:45:28.631Z,9.20
2022-08-19T18:48:26.861Z,9.07
2022-08-19T18:50:57.338Z,8.83
2022-08-19T18:53:26.025Z,8.97
2022-08-19T18:55:55.646Z,9.57
2022-08-19T18:58:26.363Z,9.17
2022-08-19T19:00:57.172Z,9.40
2022-08-19T19:03:27.438Z,9.50
2022-08-19T19:05:55.708Z,9.53
2022-08-19T19:08:26.820Z,8.67
2022-08-19T19:10:56.438Z,10.03
2022-08-19T19:13:25.118Z,9.53
2022-08-19T19:15:54.561Z,9.87
2022-08-19T19:18:22.828Z,9.60
2022-08-19T19:20:52.418Z,9.77
2022-08-19T19:23:20.821Z,9.67
2022-08-19T19:25:51.367Z,9.33
2022-08-19T19:28:25.859Z,9.40
2022-08-19T19:30:55.338Z,9.03
2022-08-19T19:33:23.599Z,8.60
2022-08-19T19:35:53.238Z,8.83
2022-08-19T19:38:21.439Z,9.07
2022-08-19T19:40:49.769Z,10.23
2022-08-19T19:43:18.472Z,9.50
2022-08-19T19:45:48.388Z,8.70
2022-08-19T19:48:16.697Z,9.40
2022-08-19T19:50:45.188Z,9.17
2022-08-19T19:53:16.412Z,8.87
2022-08-19T19:55:44.769Z,10.27
2022-08-19T19:58:12.989Z,8.93
2022-08-19T20:00:41.134Z,10.70
2022-08-19T20:03:09.608Z,9.60
2022-08-19T20:05:37.749Z,9.10
2022-08-19T20:08:23.798Z,10.90
2022-08-19T20:10:53.359Z,10.50
2022-08-19T20:13:21.888Z,11.17
2022-08-19T20:15:50.039Z,10.90
2022-08-19T20:18:19.069Z,11.43
2022-08-19T20:20:50.260Z,11.47
2022-08-19T20:23:20.737Z,12.10
2022-08-19T20:25:49.189Z,12.70
2022-08-19T20:28:19.108Z,12.70
2022-08-19T20:30:48.508Z,13.67
2022-08-19T20:33:16.877Z,12.63
2022-08-19T20:35:46.348Z,13.70
2022-08-19T20:38:14.893Z,13.37
2022-08-19T20:40:43.191Z,13.53
2022-08-19T20:43:12.341Z,12.40
2022-08-19T20:45:42.238Z,13.37
2022-08-19T20:48:12.606Z,14.07
2022-08-19T20:50:41.153Z,14.33
2022-08-19T20:53:13.731Z,13.47
2022-08-19T20:55:44.914Z,13.50
2022-08-19T20:58:13.645Z,13.37
2022-08-19T21:00:46.050Z,13.73
2022-08-19T21:03:15.635Z,13.90
2022-08-19T21:05:44.021Z,12.17
2022-08-19T21:08:12.276Z,13.10
2022-08-19T21:10:42.453Z,13.40
2022-08-19T21:13:10.840Z,12.27
2022-08-19T21:15:43.232Z,14.10
2022-08-19T21:18:13.602Z,12.93
2022-08-19T21:20:42.100Z,14.23
2022-08-19T21:23:12.555Z,13.23
2022-08-19T21:25:41.093Z,13.73
2022-08-19T21:28:11.940Z,13.07
2022-08-19T21:30:45.145Z,12.60
2022-08-19T21:33:15.322Z,11.57
2022-08-19T21:35:44.452Z,12.63
2022-08-19T21:38:12.892Z,12.53
2022-08-19T21:40:41.130Z,11.07
2022-08-19T21:43:09.463Z,12.43
2022-08-19T21:45:37.763Z,12.10
2022-08-19T21:48:06.341Z,11.30
2022-08-19T21:50:36.301Z,12.27
2022-08-19T21:53:04.592Z,11.47
2022-08-19T21:55:32.960Z,13.47
2022-08-19T21:58:02.061Z,12.57
2022-08-19T22:00:34.622Z,12.47
2022-08-19T22:03:03.140Z,11.80
2022-08-19T22:05:31.615Z,11.20
2022-08-19T22:08:02.443Z,11.00
2022-08-19T22:10:32.822Z,10.73
2022-08-19T22:13:01.412Z,9.63
2022-08-19T22:15:30.234Z,8.70
2022-08-19T22:17:59.072Z,9.27
2022-08-19T22:20:30.282Z,9.60
2022-08-19T22:23:02.162Z,8.67
2022-08-19T22:25:33.857Z,8.63
2022-08-19T22:28:02.414Z,7.97
2022-08-19T22:30:33.676Z,8.70
2022-08-19T22:33:04.363Z,8.60
2022-08-19T22:35:34.602Z,8.50
2022-08-19T22:38:06.565Z,8.07
2022-08-19T22:40:37.096Z,7.90
2022-08-19T22:43:08.128Z,8.03
2022-08-19T22:45:36.641Z,7.63
2022-08-19T22:48:07.932Z,7.67
2022-08-19T22:50:36.502Z,7.80
2022-08-19T22:53:07.506Z,7.37
2022-08-19T22:55:37.031Z,8.33
2022-08-19T22:58:05.523Z,7.73
2022-08-19T23:00:34.010Z,7.77
2022-08-19T23:03:02.944Z,7.70
2022-08-19T23:05:31.281Z,7.00
2022-08-19T23:07:59.951Z,6.60
2022-08-19T23:10:30.111Z,7.40
2022-08-19T23:13:00.003Z,7.80
2022-08-19T23:15:31.154Z,7.27
2022-08-19T23:18:05.252Z,6.77
2022-08-19T23:20:36.574Z,6.63
2022-08-19T23:23:07.221Z,6.77
2022-08-19T23:25:37.681Z,6.43
2022-08-19T23:28:24.304Z,6.27
2022-08-19T23:30:53.962Z,6.93
2022-08-19T23:33:25.501Z,5.83
2022-08-19T23:36:00.501Z,7.30
2022-08-19T23:38:30.342Z,6.33
2022-08-19T23:41:02.010Z,6.13
2022-08-19T23:43:31.212Z,5.60
2022-08-19T23:46:10.538Z,6.27
2022-08-19T23:48:39.984Z,6.17
2022-08-19T23:51:10.786Z,5.63
2022-08-19T23:53:40.031Z,5.83
2022-08-19T23:56:10.940Z,5.77
2022-08-19T23:58:39.744Z,6.00
